sensor_id;sensor_type;location;lat;lon;timestamp;temperature;humidity
11922;DHT22;6021;51.182;3.160;2022-08-19T00:01:36;18.00;99.90
11922;DHT22;6021;51.182;3.160;2022-08-19T00:04:08;17.90;99.90
11922;DHT22;6021;51.182;3.160;2022-08-19T00:06:37;17.80;99.90
11922;DHT22;6021;51.182;3.160;2022-08-19T00:09:09;17.70;99.90
11922;DHT22;6021;51.182;3.160;2022-08-19T00:11:38;17.60;99.90
11922;DHT22;6021;51.182;3.160;2022-08-19T00:14:09;17.60;99.90
11922;DHT22;6021;51.182;3.160;2022-08-19T00:16:38;17.50;99.90
11922;DHT22;6021;51.182;3.160;2022-08-19T00:19:09;17.60;99.90
11922;DHT22;6021;51.182;3.160;2022-08-19T00:21:37;17.70;99.90
11922;DHT22;6021;51.182;3.160;2022-08-19T00:24:08;17.60;99.90
11922;DHT22;6021;51.182;3.160;2022-08-19T00:26:37;17.60;99.90
11922;DHT22;6021;51.182;3.160;2022-08-19T00:29:07;17.60;99.90
11922;DHT22;6021;51.182;3.160;2022-08-19T00:31:36;17.50;99.90
11922;DHT22;6021;51.182;3.160;2022-08-19T00:34:04;17.60;99.90
11922;DHT22;6021;51.182;3.160;2022-08-19T00:36:32;17.60;99.90
11922;DHT22;6021;51.182;3.160;2022-08-19T00:39:01;17.60;99.90
11922;DHT22;6021;51.182;3.160;2022-08-19T00:41:29;17.70;99.90
11922;DHT22;6021;51.182;3.160;2022-08-19T00:46:37;17.70;99.90
11922;DHT22;6021;51.182;3.160;2022-08-19T00:49:25;17.50;99.90
11922;DHT22;6021;51.182;3.160;2022-08-19T00:51:59;17.40;99.90
11922;DHT22;6021;51.182;3.160;2022-08-19T00:56:59;17.40;99.90
11922;DHT22;6021;51.182;3.160;2022-08-19T00:59:30;17.40;99.90
11922;DHT22;6021;51.182;3.160;2022-08-19T01:01:58;17.50;99.90
11922;DHT22;6021;51.182;3.160;2022-08-19T01:04:27;17.60;99.90
11922;DHT22;6021;51.182;3.160;2022-08-19T01:06:56;17.60;99.90
11922;DHT22;6021;51.182;3.160;2022-08-19T01:09:25;17.70;99.90
11922;DHT22;6021;51.182;3.160;2022-08-19T01:11:55;17.60;99.90
11922;DHT22;6021;51.182;3.160;2022-08-19T01:14:24;17.80;99.90
11922;DHT22;6021;51.182;3.160;2022-08-19T01:16:54;17.70;99.90
11922;DHT22;6021;51.182;3.160;2022-08-19T01:19:32;17.70;99.90
11922;DHT22;6021;51.182;3.160;2022-08-19T01:22:12;17.60;99.90
11922;DHT22;6021;51.182;3.160;2022-08-19T01:24:41;17.50;99.90
11922;DHT22;6021;51.182;3.160;2022-08-19T01:27:09;17.40;99.90
11922;DHT22;6021;51.182;3.160;2022-08-19T01:29:40;17.30;99.90
11922;DHT22;6021;51.182;3.160;2022-08-19T01:32:11;17.40;99.90
11922;DHT22;6021;51.182;3.160;2022-08-19T01:34:40;17.40;99.90
11922;DHT22;6021;51.182;3.160;2022-08-19T01:37:10;17.50;99.90
11922;DHT22;6021;51.182;3.160;2022-08-19T01:39:40;17.40;99.90
11922;DHT22;6021;51.182;3.160;2022-08-19T01:42:09;17.50;99.90
11922;DHT22;6021;51.182;3.160;2022-08-19T01:44:40;17.50;99.90
11922;DHT22;6021;51.182;3.160;2022-08-19T01:47:09;17.60;99.90
11922;DHT22;6021;51.182;3.160;2022-08-19T01:49:37;17.40;99.90
11922;DHT22;6021;51.182;3.160;2022-08-19T01:52:06;17.40;99.90
11922;DHT22;6021;51.182;3.160;2022-08-19T01:54:34;17.30;99.90
11922;DHT22;6021;51.182;3.160;2022-08-19T01:57:08;17.40;99.90
11922;DHT22;6021;51.182;3.160;2022-08-19T01:59:38;17.00;99.90
11922;DHT22;6021;51.182;3.160;2022-08-19T02:02:07;17.20;99.90
11922;DHT22;6021;51.182;3.160;2022-08-19T02:04:36;17.10;99.90
11922;DHT22;6021;51.182;3.160;2022-08-19T02:07:07;17.20;99.90
11922;DHT22;6021;51.182;3.160;2022-08-19T02:09:36;17.10;99.90
11922;DHT22;6021;51.182;3.160;2022-08-19T02:12:06;17.10;99.90
11922;DHT22;6021;51.182;3.160;2022-08-19T02:14:36;17.10;99.90
11922;DHT22;6021;51.182;3.160;2022-08-19T02:17:05;17.10;99.90
11922;DHT22;6021;51.182;3.160;2022-08-19T02:19:33;17.00;99.90
11922;DHT22;6021;51.182;3.160;2022-08-19T02:22:02;17.00;99.90
11922;DHT22;6021;51.182;3.160;2022-08-19T02:24:30;17.10;99.90
11922;DHT22;6021;51.182;3.160;2022-08-19T02:26:58;17.10;99.90
11922;DHT22;6021;51.182;3.160;2022-08-19T02:29:27;17.20;99.90
11922;DHT22;6021;51.182;3.160;2022-08-19T02:31:55;17.10;99.90
11922;DHT22;6021;51.182;3.160;2022-08-19T02:34:24;17.10;99.90
11922;DHT22;6021;51.182;3.160;2022-08-19T02:36:52;17.10;99.90
11922;DHT22;6021;51.182;3.160;2022-08-19T02:39:21;17.20;99.90
11922;DHT22;6021;51.182;3.160;2022-08-19T02:41:49;17.30;99.90
11922;DHT22;6021;51.182;3.160;2022-08-19T02:44:19;17.40;99.90
11922;DHT22;6021;51.182;3.160;2022-08-19T02:46:48;17.40;99.90
11922;DHT22;6021;51.182;3.160;2022-08-19T02:49:20;17.40;99.90
11922;DHT22;6021;51.182;3.160;2022-08-19T02:51:48;17.30;99.90
11922;DHT22;6021;51.182;3.160;2022-08-19T02:54:16;17.30;99.90
11922;DHT22;6021;51.182;3.160;2022-08-19T02:56:44;17.30;99.90
11922;DHT22;6021;51.182;3.160;2022-08-19T02:59:13;17.10;99.90
11922;DHT22;6021;51.182;3.160;2022-08-19T03:01:42;17.10;99.90
11922;DHT22;6021;51.182;3.160;2022-08-19T03:04:13;17.30;99.90
11922;DHT22;6021;51.182;3.160;2022-08-19T03:06:44;17.20;99.90
11922;DHT22;6021;51.182;3.160;2022-08-19T03:09:14;17.40;99.90
11922;DHT22;6021;51.182;3.160;2022-08-19T03:11:42;17.30;99.90
11922;DHT22;6021;51.182;3.160;2022-08-19T03:14:11;17.40;99.90
11922;DHT22;6021;51.182;3.160;2022-08-19T03:16:46;17.40;99.90
11922;DHT22;6021;51.182;3.160;2022-08-19T03:19:17;17.30;99.90
11922;DHT22;6021;51.182;3.160;2022-08-19T03:21:46;17.40;99.90
11922;DHT22;6021;51.182;3.160;2022-08-19T03:24:16;17.40;99.90
11922;DHT22;6021;51.182;3.160;2022-08-19T03:26:48;17.40;99.90
11922;DHT22;6021;51.182;3.160;2022-08-19T03:29:18;17.20;99.90
11922;DHT22;6021;51.182;3.160;2022-08-19T03:31:46;17.30;99.90
11922;DHT22;6021;51.182;3.160;2022-08-19T03:34:20;17.30;99.90
11922;DHT22;6021;51.182;3.160;2022-08-19T03:36:49;17.40;99.90
11922;DHT22;6021;51.182;3.160;2022-08-19T03:39:17;17.30;99.90
11922;DHT22;6021;51.182;3.160;2022-08-19T03:41:47;17.40;99.90
11922;DHT22;6021;51.182;3.160;2022-08-19T03:44:20;17.50;99.90
11922;DHT22;6021;51.182;3.160;2022-08-19T03:46:51;17.50;99.90
11922;DHT22;6021;51.182;3.160;2022-08-19T03:49:22;17.50;99.90
11922;DHT22;6021;51.182;3.160;2022-08-19T03:51:51;17.50;99.90
11922;DHT22;6021;51.182;3.160;2022-08-19T03:54:21;17.40;99.90
11922;DHT22;6021;51.182;3.160;2022-08-19T03:56:53;17.40;99.90
11922;DHT22;6021;51.182;3.160;2022-08-19T03:59:25;17.50;99.90
11922;DHT22;6021;51.182;3.160;2022-08-19T04:01:55;17.50;99.90
11922;DHT22;6021;51.182;3.160;2022-08-19T04:04:24;17.40;99.90
11922;DHT22;6021;51.182;3.160;2022-08-19T04:06:52;17.30;99.90
11922;DHT22;6021;51.182;3.160;2022-08-19T04:09:21;17.40;99.90
11922;DHT22;6021;51.182;3.160;2022-08-19T04:11:51;17.40;99.90
11922;DHT22;6021;51.182;3.160;2022-08-19T04:14:24;17.40;99.90
11922;DHT22;6021;51.182;3.160;2022-08-19T04:16:53;17.40;99.90
11922;DHT22;6021;51.182;3.160;2022-08-19T04:19:21;17.50;99.90
11922;DHT22;6021;51.182;3.160;2022-08-19T04:21:52;17.50;99.90
11922;DHT22;6021;51.182;3.160;2022-08-19T04:24:22;17.60;99.90
11922;DHT22;6021;51.182;3.160;2022-08-19T04:26:51;17.60;99.90
11922;DHT22;6021;51.182;3.160;2022-08-19T04:29:24;17.60;99.90
11922;DHT22;6021;51.182;3.160;2022-08-19T04:31:56;17.70;99.90
11922;DHT22;6021;51.182;3.160;2022-08-19T04:34:28;17.90;99.90
11922;DHT22;6021;51.182;3.160;2022-08-19T04:36:58;17.80;99.90
11922;DHT22;6021;51.182;3.160;2022-08-19T04:39:29;17.80;99.90
11922;DHT22;6021;51.182;3.160;2022-08-19T04:42:17;17.70;99.90
11922;DHT22;6021;51.182;3.160;2022-08-19T04:45:07;17.90;99.90
11922;DHT22;6021;51.182;3.160;2022-08-19T04:47:39;17.90;99.90
11922;DHT22;6021;51.182;3.160;2022-08-19T04:50:08;17.90;99.90
11922;DHT22;6021;51.182;3.160;2022-08-19T04:52:39;17.90;99.90
11922;DHT22;6021;51.182;3.160;2022-08-19T04:55:10;17.90;99.90
11922;DHT22;6021;51.182;3.160;2022-08-19T04:57:39;17.90;99.90
11922;DHT22;6021;51.182;3.160;2022-08-19T05:00:09;18.00;99.90
11922;DHT22;6021;51.182;3.160;2022-08-19T05:02:38;18.10;99.90
11922;DHT22;6021;51.182;3.160;2022-08-19T05:05:07;18.20;99.90
11922;DHT22;6021;51.182;3.160;2022-08-19T05:07:35;18.20;99.90
11922;DHT22;6021;51.182;3.160;2022-08-19T05:10:06;18.30;99.90
11922;DHT22;6021;51.182;3.160;2022-08-19T05:12:47;18.30;99.90
11922;DHT22;6021;51.182;3.160;2022-08-19T05:15:18;18.40;99.90
11922;DHT22;6021;51.182;3.160;2022-08-19T05:17:48;18.40;99.90
11922;DHT22;6021;51.182;3.160;2022-08-19T05:20:37;18.40;99.90
11922;DHT22;6021;51.182;3.160;2022-08-19T05:23:22;18.30;99.90
11922;DHT22;6021;51.182;3.160;2022-08-19T05:25:51;18.30;99.90
11922;DHT22;6021;51.182;3.160;2022-08-19T05:28:21;18.40;99.90
11922;DHT22;6021;51.182;3.160;2022-08-19T05:30:53;18.50;99.90
11922;DHT22;6021;51.182;3.160;2022-08-19T05:33:27;18.50;99.90
11922;DHT22;6021;51.182;3.160;2022-08-19T05:35:57;18.60;99.90
11922;DHT22;6021;51.182;3.160;2022-08-19T05:38:27;18.70;99.90
11922;DHT22;6021;51.182;3.160;2022-08-19T05:41:07;18.80;99.90
11922;DHT22;6021;51.182;3.160;2022-08-19T05:43:39;18.70;99.90
11922;DHT22;6021;51.182;3.160;2022-08-19T05:46:18;18.70;99.90
11922;DHT22;6021;51.182;3.160;2022-08-19T05:48:47;18.70;99.90
11922;DHT22;6021;51.182;3.160;2022-08-19T05:51:19;18.60;99.90
11922;DHT22;6021;51.182;3.160;2022-08-19T05:53:52;18.70;99.90
11922;DHT22;6021;51.182;3.160;2022-08-19T05:56:25;18.80;99.90
11922;DHT22;6021;51.182;3.160;2022-08-19T05:58:59;18.80;99.90
11922;DHT22;6021;51.182;3.160;2022-08-19T06:01:31;18.90;99.90
11922;DHT22;6021;51.182;3.160;2022-08-19T06:04:03;18.90;99.90
11922;DHT22;6021;51.182;3.160;2022-08-19T06:06:35;18.80;99.90
11922;DHT22;6021;51.182;3.160;2022-08-19T06:09:16;18.80;99.90
11922;DHT22;6021;51.182;3.160;2022-08-19T06:11:48;18.80;99.90
11922;DHT22;6021;51.182;3.160;2022-08-19T06:14:20;19.00;99.90
11922;DHT22;6021;51.182;3.160;2022-08-19T06:16:48;19.00;99.90
11922;DHT22;6021;51.182;3.160;2022-08-19T06:19:20;19.00;99.90
11922;DHT22;6021;51.182;3.160;2022-08-19T06:24:22;19.00;99.90
11922;DHT22;6021;51.182;3.160;2022-08-19T06:26:52;19.10;99.90
11922;DHT22;6021;51.182;3.160;2022-08-19T06:29:23;19.10;99.90
11922;DHT22;6021;51.182;3.160;2022-08-19T06:31:55;19.00;99.90
11922;DHT22;6021;51.182;3.160;2022-08-19T06:37:00;19.10;99.90
11922;DHT22;6021;51.182;3.160;2022-08-19T06:39:32;19.20;99.90
11922;DHT22;6021;51.182;3.160;2022-08-19T06:42:02;19.20;99.90
11922;DHT22;6021;51.182;3.160;2022-08-19T06:44:34;19.20;99.90
11922;DHT22;6021;51.182;3.160;2022-08-19T06:47:05;19.20;99.90
11922;DHT22;6021;51.182;3.160;2022-08-19T06:49:35;19.20;99.90
11922;DHT22;6021;51.182;3.160;2022-08-19T06:52:05;19.20;99.90
11922;DHT22;6021;51.182;3.160;2022-08-19T06:54:33;19.20;99.90
11922;DHT22;6021;51.182;3.160;2022-08-19T06:57:06;19.20;99.90
11922;DHT22;6021;51.182;3.160;2022-08-19T06:59:39;19.10;99.90
11922;DHT22;6021;51.182;3.160;2022-08-19T07:02:07;19.10;99.90
11922;DHT22;6021;51.182;3.160;2022-08-19T07:04:38;19.20;99.90
11922;DHT22;6021;51.182;3.160;2022-08-19T07:07:12;19.20;99.90
11922;DHT22;6021;51.182;3.160;2022-08-19T07:09:44;19.30;99.90
11922;DHT22;6021;51.182;3.160;2022-08-19T07:12:17;19.20;99.90
11922;DHT22;6021;51.182;3.160;2022-08-19T07:14:49;19.30;99.90
11922;DHT22;6021;51.182;3.160;2022-08-19T07:17:20;19.30;99.90
11922;DHT22;6021;51.182;3.160;2022-08-19T07:19:50;19.30;99.90
11922;DHT22;6021;51.182;3.160;2022-08-19T07:22:21;19.40;99.90
11922;DHT22;6021;51.182;3.160;2022-08-19T07:24:54;19.50;99.90
11922;DHT22;6021;51.182;3.160;2022-08-19T07:27:28;19.50;99.90
11922;DHT22;6021;51.182;3.160;2022-08-19T07:30:06;19.50;99.90
11922;DHT22;6021;51.182;3.160;2022-08-19T07:32:39;19.60;99.90
11922;DHT22;6021;51.182;3.160;2022-08-19T07:35:11;19.60;99.90
11922;DHT22;6021;51.182;3.160;2022-08-19T07:37:39;19.60;99.90
11922;DHT22;6021;51.182;3.160;2022-08-19T07:40:11;19.70;99.90
11922;DHT22;6021;51.182;3.160;2022-08-19T07:42:41;19.70;99.90
11922;DHT22;6021;51.182;3.160;2022-08-19T07:45:14;19.70;99.90
11922;DHT22;6021;51.182;3.160;2022-08-19T07:47:49;19.60;99.90
11922;DHT22;6021;51.182;3.160;2022-08-19T07:50:30;19.60;99.90
11922;DHT22;6021;51.182;3.160;2022-08-19T07:53:06;19.70;99.90
11922;DHT22;6021;51.182;3.160;2022-08-19T07:55:41;19.80;99.90
11922;DHT22;6021;51.182;3.160;2022-08-19T07:58:12;19.80;99.90
11922;DHT22;6021;51.182;3.160;2022-08-19T08:00:43;19.90;99.90
11922;DHT22;6021;51.182;3.160;2022-08-19T08:03:18;19.80;99.90
11922;DHT22;6021;51.182;3.160;2022-08-19T08:05:52;20.00;99.90
11922;DHT22;6021;51.182;3.160;2022-08-19T08:08:39;19.90;99.90
11922;DHT22;6021;51.182;3.160;2022-08-19T08:11:26;19.90;99.90
11922;DHT22;6021;51.182;3.160;2022-08-19T08:13:57;20.00;99.90
11922;DHT22;6021;51.182;3.160;2022-08-19T08:16:26;20.00;99.90
11922;DHT22;6021;51.182;3.160;2022-08-19T08:18:58;19.90;99.90
11922;DHT22;6021;51.182;3.160;2022-08-19T08:21:30;20.10;99.90
11922;DHT22;6021;51.182;3.160;2022-08-19T08:24:01;20.10;99.90
11922;DHT22;6021;51.182;3.160;2022-08-19T08:26:30;20.10;99.90
11922;DHT22;6021;51.182;3.160;2022-08-19T08:29:06;20.10;99.90
11922;DHT22;6021;51.182;3.160;2022-08-19T08:31:42;20.10;99.90
11922;DHT22;6021;51.182;3.160;2022-08-19T08:34:14;20.00;99.90
11922;DHT22;6021;51.182;3.160;2022-08-19T08:36:47;20.20;99.90
11922;DHT22;6021;51.182;3.160;2022-08-19T08:39:20;20.30;99.90
11922;DHT22;6021;51.182;3.160;2022-08-19T08:42:13;20.20;99.90
11922;DHT22;6021;51.182;3.160;2022-08-19T08:44:54;20.30;99.90
11922;DHT22;6021;51.182;3.160;2022-08-19T08:47:26;20.30;99.90
11922;DHT22;6021;51.182;3.160;2022-08-19T08:50:05;20.30;99.90
11922;DHT22;6021;51.182;3.160;2022-08-19T08:52:35;20.30;99.90
11922;DHT22;6021;51.182;3.160;2022-08-19T08:55:15;20.20;99.90
11922;DHT22;6021;51.182;3.160;2022-08-19T08:57:51;20.30;99.90
11922;DHT22;6021;51.182;3.160;2022-08-19T09:00:33;20.30;99.90
11922;DHT22;6021;51.182;3.160;2022-08-19T09:03:02;20.40;99.90
11922;DHT22;6021;51.182;3.160;2022-08-19T09:05:43;20.40;99.90
11922;DHT22;6021;51.182;3.160;2022-08-19T09:08:17;20.50;99.90
11922;DHT22;6021;51.182;3.160;2022-08-19T09:10:53;20.50;99.90
11922;DHT22;6021;51.182;3.160;2022-08-19T09:16:22;20.60;99.90
11922;DHT22;6021;51.182;3.160;2022-08-19T09:18:55;20.60;99.90
11922;DHT22;6021;51.182;3.160;2022-08-19T09:21:28;20.60;99.90
11922;DHT22;6021;51.182;3.160;2022-08-19T09:23:57;20.60;99.90
11922;DHT22;6021;51.182;3.160;2022-08-19T09:26:26;20.60;99.90
11922;DHT22;6021;51.182;3.160;2022-08-19T09:29:00;20.60;99.90
11922;DHT22;6021;51.182;3.160;2022-08-19T09:31:33;20.70;99.90
11922;DHT22;6021;51.182;3.160;2022-08-19T09:34:05;20.60;99.90
11922;DHT22;6021;51.182;3.160;2022-08-19T09:36:34;20.70;99.90
11922;DHT22;6021;51.182;3.160;2022-08-19T09:39:05;20.60;99.90
11922;DHT22;6021;51.182;3.160;2022-08-19T09:41:35;20.80;99.90
11922;DHT22;6021;51.182;3.160;2022-08-19T09:44:06;20.90;99.90
11922;DHT22;6021;51.182;3.160;2022-08-19T09:46:39;20.90;99.90
11922;DHT22;6021;51.182;3.160;2022-08-19T09:49:07;20.90;99.90
11922;DHT22;6021;51.182;3.160;2022-08-19T09:51:43;20.90;99.90
11922;DHT22;6021;51.182;3.160;2022-08-19T09:54:12;20.80;99.90
11922;DHT22;6021;51.182;3.160;2022-08-19T09:56:44;20.90;99.90
11922;DHT22;6021;51.182;3.160;2022-08-19T09:59:17;20.80;99.90
11922;DHT22;6021;51.182;3.160;2022-08-19T10:01:47;20.90;99.90
11922;DHT22;6021;51.182;3.160;2022-08-19T10:04:18;20.90;99.90
11922;DHT22;6021;51.182;3.160;2022-08-19T10:06:55;20.90;99.90
11922;DHT22;6021;51.182;3.160;2022-08-19T10:09:28;20.80;99.90
11922;DHT22;6021;51.182;3.160;2022-08-19T10:12:03;20.80;99.90
11922;DHT22;6021;51.182;3.160;2022-08-19T10:14:34;20.90;99.90
11922;DHT22;6021;51.182;3.160;2022-08-19T10:17:12;21.00;99.90
11922;DHT22;6021;51.182;3.160;2022-08-19T10:19:43;21.00;99.90
11922;DHT22;6021;51.182;3.160;2022-08-19T10:22:12;21.10;99.90
11922;DHT22;6021;51.182;3.160;2022-08-19T10:24:47;21.30;99.90
11922;DHT22;6021;51.182;3.160;2022-08-19T10:27:24;21.20;99.90
11922;DHT22;6021;51.182;3.160;2022-08-19T10:29:59;21.20;99.90
11922;DHT22;6021;51.182;3.160;2022-08-19T10:32:33;21.10;99.90
11922;DHT22;6021;51.182;3.160;2022-08-19T10:35:23;21.30;99.90
11922;DHT22;6021;51.182;3.160;2022-08-19T10:37:53;21.40;99.90
11922;DHT22;6021;51.182;3.160;2022-08-19T10:40:22;21.50;99.90
11922;DHT22;6021;51.182;3.160;2022-08-19T10:45:27;21.40;99.90
11922;DHT22;6021;51.182;3.160;2022-08-19T10:50:32;21.70;99.90
11922;DHT22;6021;51.182;3.160;2022-08-19T10:53:18;21.60;99.90
11922;DHT22;6021;51.182;3.160;2022-08-19T10:55:48;21.60;99.90
11922;DHT22;6021;51.182;3.160;2022-08-19T10:58:34;21.50;99.90
11922;DHT22;6021;51.182;3.160;2022-08-19T11:01:03;21.40;99.90
11922;DHT22;6021;51.182;3.160;2022-08-19T11:03:31;21.50;99.90
11922;DHT22;6021;51.182;3.160;2022-08-19T11:06:05;21.60;99.90
11922;DHT22;6021;51.182;3.160;2022-08-19T11:08:35;21.80;99.90
11922;DHT22;6021;51.182;3.160;2022-08-19T11:11:06;21.70;99.90
11922;DHT22;6021;51.182;3.160;2022-08-19T11:13:38;21.60;99.90
11922;DHT22;6021;51.182;3.160;2022-08-19T11:16:12;21.80;99.90
11922;DHT22;6021;51.182;3.160;2022-08-19T11:18:48;21.90;99.90
11922;DHT22;6021;51.182;3.160;2022-08-19T11:21:24;21.80;99.90
11922;DHT22;6021;51.182;3.160;2022-08-19T11:24:06;21.80;99.90
11922;DHT22;6021;51.182;3.160;2022-08-19T11:26:31;21.80;99.90
11922;DHT22;6021;51.182;3.160;2022-08-19T11:29:02;21.80;99.90
11922;DHT22;6021;51.182;3.160;2022-08-19T11:31:34;21.70;99.90
11922;DHT22;6021;51.182;3.160;2022-08-19T11:34:07;21.70;99.90
11922;DHT22;6021;51.182;3.160;2022-08-19T11:36:42;21.80;99.90
11922;DHT22;6021;51.182;3.160;2022-08-19T11:39:16;21.70;99.90
11922;DHT22;6021;51.182;3.160;2022-08-19T11:41:45;21.50;99.90
11922;DHT22;6021;51.182;3.160;2022-08-19T11:46:49;21.40;99.90
11922;DHT22;6021;51.182;3.160;2022-08-19T11:49:20;21.40;99.90
11922;DHT22;6021;51.182;3.160;2022-08-19T11:51:48;21.30;99.90
11922;DHT22;6021;51.182;3.160;2022-08-19T11:54:17;21.20;99.90
11922;DHT22;6021;51.182;3.160;2022-08-19T11:56:46;20.80;99.90
11922;DHT22;6021;51.182;3.160;2022-08-19T11:59:16;20.60;99.90
11922;DHT22;6021;51.182;3.160;2022-08-19T12:01:44;20.40;99.90
11922;DHT22;6021;51.182;3.160;2022-08-19T12:04:13;20.40;99.90
11922;DHT22;6021;51.182;3.160;2022-08-19T12:06:41;20.30;99.90
11922;DHT22;6021;51.182;3.160;2022-08-19T12:09:10;20.20;99.90
11922;DHT22;6021;51.182;3.160;2022-08-19T12:11:39;20.10;99.90
11922;DHT22;6021;51.182;3.160;2022-08-19T12:14:10;20.20;99.90
11922;DHT22;6021;51.182;3.160;2022-08-19T12:16:38;20.20;99.90
11922;DHT22;6021;51.182;3.160;2022-08-19T12:19:08;20.20;99.90
11922;DHT22;6021;51.182;3.160;2022-08-19T12:21:36;20.10;99.90
11922;DHT22;6021;51.182;3.160;2022-08-19T12:24:05;20.20;99.90
11922;DHT22;6021;51.182;3.160;2022-08-19T12:26:35;20.20;99.90
11922;DHT22;6021;51.182;3.160;2022-08-19T12:29:03;20.30;99.90
11922;DHT22;6021;51.182;3.160;2022-08-19T12:31:32;20.30;99.90
11922;DHT22;6021;51.182;3.160;2022-08-19T12:34:00;20.40;99.90
11922;DHT22;6021;51.182;3.160;2022-08-19T12:36:29;20.50;99.90
11922;DHT22;6021;51.182;3.160;2022-08-19T12:39:00;20.70;99.90
11922;DHT22;6021;51.182;3.160;2022-08-19T12:41:29;20.50;99.90
11922;DHT22;6021;51.182;3.160;2022-08-19T12:43:57;20.50;99.90
11922;DHT22;6021;51.182;3.160;2022-08-19T12:46:26;20.60;99.90
11922;DHT22;6021;51.182;3.160;2022-08-19T12:48:54;20.70;99.90
11922;DHT22;6021;51.182;3.160;2022-08-19T12:51:22;20.70;99.90
11922;DHT22;6021;51.182;3.160;2022-08-19T12:53:52;20.70;99.90
11922;DHT22;6021;51.182;3.160;2022-08-19T12:56:20;20.50;99.90
11922;DHT22;6021;51.182;3.160;2022-08-19T12:58:49;20.30;99.90
11922;DHT22;6021;51.182;3.160;2022-08-19T13:01:17;20.40;99.90
11922;DHT22;6021;51.182;3.160;2022-08-19T13:03:46;20.40;99.90
11922;DHT22;6021;51.182;3.160;2022-08-19T13:06:15;20.60;99.90
11922;DHT22;6021;51.182;3.160;2022-08-19T13:08:43;20.70;99.90
11922;DHT22;6021;51.182;3.160;2022-08-19T13:11:17;20.80;99.90
11922;DHT22;6021;51.182;3.160;2022-08-19T13:13:48;20.80;99.90
11922;DHT22;6021;51.182;3.160;2022-08-19T13:16:18;20.80;99.90
11922;DHT22;6021;51.182;3.160;2022-08-19T13:18:47;20.80;99.90
11922;DHT22;6021;51.182;3.160;2022-08-19T13:21:19;20.70;99.90
11922;DHT22;6021;51.182;3.160;2022-08-19T13:23:48;20.70;99.90
11922;DHT22;6021;51.182;3.160;2022-08-19T13:26:17;20.80;99.90
11922;DHT22;6021;51.182;3.160;2022-08-19T13:28:46;20.90;99.90
11922;DHT22;6021;51.182;3.160;2022-08-19T13:31:24;20.90;99.90
11922;DHT22;6021;51.182;3.160;2022-08-19T13:34:11;20.90;99.90
11922;DHT22;6021;51.182;3.160;2022-08-19T13:36:40;20.90;99.90
11922;DHT22;6021;51.182;3.160;2022-08-19T13:39:09;21.00;99.90
11922;DHT22;6021;51.182;3.160;2022-08-19T13:41:42;21.10;99.90
11922;DHT22;6021;51.182;3.160;2022-08-19T13:44:08;21.00;99.90
11922;DHT22;6021;51.182;3.160;2022-08-19T13:46:36;21.00;99.90
11922;DHT22;6021;51.182;3.160;2022-08-19T13:49:04;20.90;99.90
11922;DHT22;6021;51.182;3.160;2022-08-19T13:54:09;20.80;99.90
11922;DHT22;6021;51.182;3.160;2022-08-19T13:56:46;20.80;99.90
11922;DHT22;6021;51.182;3.160;2022-08-19T13:59:14;20.80;99.90
11922;DHT22;6021;51.182;3.160;2022-08-19T14:01:43;20.90;99.90
11922;DHT22;6021;51.182;3.160;2022-08-19T14:04:12;20.80;99.90
11922;DHT22;6021;51.182;3.160;2022-08-19T14:06:41;20.70;99.90
11922;DHT22;6021;51.182;3.160;2022-08-19T14:11:40;20.90;99.90
11922;DHT22;6021;51.182;3.160;2022-08-19T14:14:08;20.90;99.90
11922;DHT22;6021;51.182;3.160;2022-08-19T14:19:13;20.80;99.90
11922;DHT22;6021;51.182;3.160;2022-08-19T14:21:44;20.70;99.90
11922;DHT22;6021;51.182;3.160;2022-08-19T14:24:17;20.80;99.90
11922;DHT22;6021;51.182;3.160;2022-08-19T14:27:02;20.60;99.90
11922;DHT22;6021;51.182;3.160;2022-08-19T14:29:27;20.60;99.90
11922;DHT22;6021;51.182;3.160;2022-08-19T14:31:57;20.60;99.90
11922;DHT22;6021;51.182;3.160;2022-08-19T14:34:31;20.50;99.90
11922;DHT22;6021;51.182;3.160;2022-08-19T14:37:04;20.40;99.90
11922;DHT22;6021;51.182;3.160;2022-08-19T14:44:42;20.40;99.90
11922;DHT22;6021;51.182;3.160;2022-08-19T14:47:11;20.40;99.90
11922;DHT22;6021;51.182;3.160;2022-08-19T14:57:43;20.50;99.90
11922;DHT22;6021;51.182;3.160;2022-08-19T15:02:44;20.50;99.90
11922;DHT22;6021;51.182;3.160;2022-08-19T15:05:12;20.50;99.90
11922;DHT22;6021;51.182;3.160;2022-08-19T15:07:42;20.50;99.90
11922;DHT22;6021;51.182;3.160;2022-08-19T15:10:13;20.60;99.90
11922;DHT22;6021;51.182;3.160;2022-08-19T15:12:42;20.50;99.90
11922;DHT22;6021;51.182;3.160;2022-08-19T15:15:14;20.60;99.90
11922;DHT22;6021;51.182;3.160;2022-08-19T15:20:20;20.90;99.90
11922;DHT22;6021;51.182;3.160;2022-08-19T15:22:49;20.70;99.90
11922;DHT22;6021;51.182;3.160;2022-08-19T15:27:55;20.50;99.90
11922;DHT22;6021;51.182;3.160;2022-08-19T15:30:26;20.40;99.90
11922;DHT22;6021;51.182;3.160;2022-08-19T15:32:57;20.30;99.90
11922;DHT22;6021;51.182;3.160;2022-08-19T15:35:28;20.30;99.90
11922;DHT22;6021;51.182;3.160;2022-08-19T15:37:56;20.30;99.90
11922;DHT22;6021;51.182;3.160;2022-08-19T15:40:26;20.30;99.90
11922;DHT22;6021;51.182;3.160;2022-08-19T15:42:56;20.30;99.90
11922;DHT22;6021;51.182;3.160;2022-08-19T15:45:25;20.20;99.90
11922;DHT22;6021;51.182;3.160;2022-08-19T15:47:56;20.20;99.90
11922;DHT22;6021;51.182;3.160;2022-08-19T15:50:26;20.30;99.90
11922;DHT22;6021;51.182;3.160;2022-08-19T15:52:57;20.40;99.90
11922;DHT22;6021;51.182;3.160;2022-08-19T15:55:32;20.30;99.90
11922;DHT22;6021;51.182;3.160;2022-08-19T15:58:03;20.30;99.90
11922;DHT22;6021;51.182;3.160;2022-08-19T16:00:50;20.30;99.90
11922;DHT22;6021;51.182;3.160;2022-08-19T16:03:35;20.30;99.90
11922;DHT22;6021;51.182;3.160;2022-08-19T16:06:21;20.30;99.90
11922;DHT22;6021;51.182;3.160;2022-08-19T16:11:48;20.50;99.90
11922;DHT22;6021;51.182;3.160;2022-08-19T16:14:22;20.50;99.90
11922;DHT22;6021;51.182;3.160;2022-08-19T16:16:51;20.40;99.90
11922;DHT22;6021;51.182;3.160;2022-08-19T16:19:20;20.40;99.90
11922;DHT22;6021;51.182;3.160;2022-08-19T16:21:51;20.40;99.90
11922;DHT22;6021;51.182;3.160;2022-08-19T16:24:21;20.40;99.90
11922;DHT22;6021;51.182;3.160;2022-08-19T16:26:52;20.60;99.90
11922;DHT22;6021;51.182;3.160;2022-08-19T16:29:21;20.70;99.90
11922;DHT22;6021;51.182;3.160;2022-08-19T16:31:50;20.70;99.90
11922;DHT22;6021;51.182;3.160;2022-08-19T16:34:20;20.60;99.90
11922;DHT22;6021;51.182;3.160;2022-08-19T16:36:50;20.60;99.90
11922;DHT22;6021;51.182;3.160;2022-08-19T16:39:20;20.60;99.90
11922;DHT22;6021;51.182;3.160;2022-08-19T16:41:50;20.70;99.90
11922;DHT22;6021;51.182;3.160;2022-08-19T16:44:19;20.60;99.90
11922;DHT22;6021;51.182;3.160;2022-08-19T16:46:49;20.40;99.90
11922;DHT22;6021;51.182;3.160;2022-08-19T16:49:19;20.40;99.90
11922;DHT22;6021;51.182;3.160;2022-08-19T16:51:48;20.50;99.90
11922;DHT22;6021;51.182;3.160;2022-08-19T16:54:17;20.70;99.90
11922;DHT22;6021;51.182;3.160;2022-08-19T16:56:46;20.70;99.90
11922;DHT22;6021;51.182;3.160;2022-08-19T16:59:15;20.60;99.90
11922;DHT22;6021;51.182;3.160;2022-08-19T17:01:44;20.60;99.90
11922;DHT22;6021;51.182;3.160;2022-08-19T17:04:12;20.50;99.90